createdAt,value
2018-09-19T00:00:40.592Z,21.00
2018-09-19T00:02:44.201Z,21.40
2018-09-19T00:04:47.826Z,21.70
2018-09-19T00:06:51.572Z,21.80
2018-09-19T00:08:55.177Z,21.80
2018-09-19T00:10:58.696Z,21.80
2018-09-19T00:13:02.279Z,21.70
2018-09-19T00:15:05.988Z,21.60
2018-09-19T00:17:09.602Z,21.40
2018-09-19T00:19:13.242Z,21.50
2018-09-19T00:21:16.811Z,21.40
2018-09-19T00:23:20.434Z,21.50
2018-09-19T00:25:24.066Z,21.20
2018-09-19T00:27:27.653Z,21.10
2018-09-19T00:29:31.611Z,21.00
2018-09-19T00:31:35.363Z,21.10
2018-09-19T00:33:38.981Z,20.90
2018-09-19T00:35:42.526Z,21.10
2018-09-19T00:37:46.161Z,21.20
2018-09-19T00:39:49.674Z,20.80
2018-09-19T00:41:53.199Z,20.70
2018-09-19T00:43:56.759Z,20.90
2018-09-19T00:46:00.315Z,21.10
2018-09-19T00:48:03.895Z,21.00
2018-09-19T00:50:07.503Z,20.50
2018-09-19T00:52:11.160Z,20.10
2018-09-19T00:54:14.838Z,20.20
2018-09-19T00:56:18.404Z,20.20
2018-09-19T00:58:22.087Z,20.50
2018-09-19T01:00:25.704Z,20.20
2018-09-19T01:02:29.397Z,20.50
2018-09-19T01:04:33.176Z,20.60
2018-09-19T01:06:36.798Z,20.90
2018-09-19T01:08:40.358Z,21.00
2018-09-19T01:10:43.908Z,21.20
2018-09-19T01:12:47.595Z,20.80
2018-09-19T01:14:51.161Z,20.90
2018-09-19T01:16:54.674Z,20.90
2018-09-19T01:18:58.448Z,21.00
2018-09-19T01:21:02.064Z,21.00
2018-09-19T01:23:05.669Z,21.10
2018-09-19T01:25:09.268Z,21.10
2018-09-19T01:27:12.839Z,21.10
2018-09-19T01:29:16.508Z,20.60
2018-09-19T01:31:20.067Z,20.50
2018-09-19T01:33:23.668Z,20.50
2018-09-19T01:35:27.287Z,20.60
2018-09-19T01:37:30.865Z,20.70
2018-09-19T01:39:34.446Z,20.70
2018-09-19T01:41:38.044Z,20.70
2018-09-19T01:43:41.793Z,20.70
2018-09-19T01:45:45.411Z,20.50
2018-09-19T01:47:49.159Z,20.60
2018-09-19T01:49:53.012Z,20.80
2018-09-19T01:51:56.721Z,19.90
2018-09-19T01:54:00.490Z,20.90
2018-09-19T01:56:04.094Z,21.00
2018-09-19T01:58:07.700Z,20.70
2018-09-19T02:00:11.236Z,20.70
2018-09-19T02:02:15.140Z,20.80
2018-09-19T02:04:18.863Z,20.80
2018-09-19T02:06:22.489Z,20.80
2018-09-19T02:08:26.176Z,20.70
2018-09-19T02:10:29.698Z,20.70
2018-09-19T02:12:33.412Z,20.70
2018-09-19T02:14:37.030Z,20.70
2018-09-19T02:16:41.166Z,20.80
2018-09-19T02:18:44.767Z,20.80
2018-09-19T02:20:48.349Z,20.80
2018-09-19T02:22:51.918Z,20.60
2018-09-19T02:24:55.588Z,20.00
2018-09-19T02:26:59.228Z,19.70
2018-09-19T02:29:02.932Z,19.70
2018-09-19T02:31:06.621Z,19.50
2018-09-19T02:33:10.257Z,19.50
2018-09-19T02:35:14.107Z,19.70
2018-09-19T02:37:17.791Z,19.80
2018-09-19T02:39:21.308Z,19.50
2018-09-19T02:41:24.884Z,19.70
2018-09-19T02:43:28.568Z,19.90
2018-09-19T02:45:32.163Z,20.00
2018-09-19T02:47:35.783Z,20.00
2018-09-19T02:49:39.361Z,20.00
2018-09-19T02:51:43.011Z,20.20
2018-09-19T02:53:47.855Z,20.30
2018-09-19T02:55:51.428Z,20.20
2018-09-19T02:57:55.046Z,20.10
2018-09-19T02:59:58.636Z,20.10
2018-09-19T03:02:02.240Z,20.10
2018-09-19T03:04:06.069Z,20.10
2018-09-19T03:06:09.610Z,20.10
2018-09-19T03:08:13.299Z,19.90
2018-09-19T03:10:16.822Z,19.40
2018-09-19T03:12:20.425Z,19.20
2018-09-19T03:14:24.006Z,19.50
2018-09-19T03:16:27.617Z,19.50
2018-09-19T03:18:31.467Z,19.60
2018-09-19T03:20:35.025Z,19.60
2018-09-19T03:22:38.659Z,19.70
2018-09-19T03:24:42.189Z,19.70
2018-09-19T03:26:45.773Z,19.50
2018-09-19T03:28:49.554Z,19.40
2018-09-19T03:30:53.134Z,19.40
2018-09-19T03:32:56.763Z,19.50
2018-09-19T03:35:00.347Z,19.60
2018-09-19T03:37:04.014Z,19.70
2018-09-19T03:39:09.286Z,18.60
2018-09-19T03:41:12.883Z,18.10
2018-09-19T03:43:16.433Z,18.50
2018-09-19T03:45:20.017Z,18.40
2018-09-19T03:47:23.674Z,18.70
2018-09-19T03:49:27.368Z,19.00
2018-09-19T03:51:31.079Z,18.90
2018-09-19T03:53:34.689Z,18.90
2018-09-19T03:55:38.290Z,18.70
2018-09-19T03:57:42.074Z,19.10
2018-09-19T03:59:45.668Z,19.30
2018-09-19T04:01:49.247Z,19.10
2018-09-19T04:03:52.829Z,19.20
2018-09-19T04:05:56.598Z,19.40
2018-09-19T04:08:00.193Z,19.50
2018-09-19T04:10:03.786Z,19.60
2018-09-19T04:12:07.473Z,19.70
2018-09-19T04:14:11.961Z,19.50
2018-09-19T04:16:15.711Z,19.40
2018-09-19T04:18:19.318Z,18.80
2018-09-19T04:20:22.923Z,19.00
2018-09-19T04:22:26.488Z,19.10
2018-09-19T04:24:30.008Z,19.30
2018-09-19T04:26:33.696Z,19.30
2018-09-19T04:28:37.248Z,19.30
2018-09-19T04:30:40.958Z,19.30
2018-09-19T04:32:44.567Z,20.50
2018-09-19T04:34:48.247Z,19.40
2018-09-19T04:36:51.844Z,19.30
2018-09-19T04:38:55.400Z,19.10
2018-09-19T04:40:59.090Z,19.30
2018-09-19T04:43:02.668Z,19.60
2018-09-19T04:45:06.408Z,19.80
2018-09-19T04:47:09.884Z,19.90
2018-09-19T04:49:13.402Z,20.00
2018-09-19T04:51:17.105Z,20.00
2018-09-19T04:53:20.576Z,20.10
2018-09-19T04:55:24.084Z,20.20
2018-09-19T04:57:27.630Z,20.20
2018-09-19T04:59:31.167Z,20.30
2018-09-19T05:01:34.846Z,20.20
2018-09-19T05:03:38.365Z,20.20
2018-09-19T05:05:41.894Z,20.20
2018-09-19T05:07:45.406Z,20.30
2018-09-19T05:09:49.103Z,20.30
2018-09-19T05:11:52.630Z,20.40
2018-09-19T05:13:56.107Z,20.40
2018-09-19T05:15:59.610Z,20.50
2018-09-19T05:18:03.247Z,20.40
2018-09-19T05:20:06.926Z,20.50
2018-09-19T05:22:10.396Z,20.50
2018-09-19T05:24:13.869Z,20.50
2018-09-19T05:26:17.467Z,20.50
2018-09-19T05:28:21.160Z,20.60
2018-09-19T05:30:24.928Z,20.70
2018-09-19T05:32:28.404Z,20.80
2018-09-19T05:34:31.920Z,20.50
2018-09-19T05:36:35.448Z,20.20
2018-09-19T05:38:39.046Z,20.20
2018-09-19T05:40:42.603Z,20.30
2018-09-19T05:42:46.415Z,20.40
2018-09-19T05:44:49.924Z,20.00
2018-09-19T05:46:53.440Z,19.40
2018-09-19T05:48:57.051Z,19.30
2018-09-19T05:51:00.565Z,19.40
2018-09-19T05:53:04.161Z,19.70
2018-09-19T05:55:07.953Z,19.80
2018-09-19T05:57:11.463Z,20.10
2018-09-19T05:59:15.279Z,20.20
2018-09-19T06:01:19.034Z,20.40
2018-09-19T06:03:22.671Z,20.50
2018-09-19T06:05:26.672Z,20.70
2018-09-19T06:07:30.421Z,20.80
2018-09-19T06:09:34.308Z,20.80
2018-09-19T06:11:38.059Z,20.50
2018-09-19T06:13:41.772Z,20.40
2018-09-19T06:15:45.263Z,20.50
2018-09-19T06:17:48.938Z,20.60
2018-09-19T06:19:52.424Z,20.70
2018-09-19T06:21:56.111Z,20.70
2018-09-19T06:23:59.708Z,20.80
2018-09-19T06:26:03.321Z,20.80
2018-09-19T06:28:06.874Z,20.70
2018-09-19T06:30:10.411Z,20.30
2018-09-19T06:32:13.935Z,20.20
2018-09-19T06:34:17.462Z,20.10
2018-09-19T06:36:20.976Z,19.90
2018-09-19T06:38:24.584Z,19.90
2018-09-19T06:40:28.407Z,19.90
2018-09-19T06:42:31.908Z,20.10
2018-09-19T06:44:35.423Z,20.20
2018-09-19T06:46:38.925Z,20.20
2018-09-19T06:48:42.433Z,20.30
2018-09-19T06:50:46.133Z,20.40
2018-09-19T06:52:49.647Z,20.50
2018-09-19T06:54:53.420Z,20.60
2018-09-19T06:56:56.980Z,20.60
2018-09-19T06:59:00.551Z,20.60
2018-09-19T07:01:04.167Z,20.50
2018-09-19T07:03:07.686Z,20.60
2018-09-19T07:05:11.226Z,20.80
2018-09-19T07:07:14.854Z,20.40
2018-09-19T07:09:18.360Z,20.30
2018-09-19T07:11:22.064Z,20.50
2018-09-19T07:13:25.727Z,20.20
2018-09-19T07:15:29.291Z,19.30
2018-09-19T07:17:33.055Z,19.20
2018-09-19T07:19:36.635Z,17.90
2018-09-19T07:21:40.305Z,19.20
2018-09-19T07:23:43.900Z,19.60
2018-09-19T07:25:47.662Z,20.00
2018-09-19T07:27:51.183Z,20.20
2018-09-19T07:29:54.689Z,20.30
2018-09-19T07:31:58.379Z,20.70
2018-09-19T07:34:01.911Z,20.70
2018-09-19T07:36:05.617Z,21.00
2018-09-19T07:38:09.122Z,20.70
2018-09-19T07:40:12.698Z,20.70
2018-09-19T07:42:16.226Z,20.50
2018-09-19T07:44:19.755Z,20.80
2018-09-19T07:46:23.557Z,21.20
2018-09-19T07:48:27.174Z,21.60
2018-09-19T07:50:30.887Z,21.80
2018-09-19T07:52:34.352Z,21.70
2018-09-19T07:54:37.930Z,21.80
2018-09-19T07:56:41.486Z,21.40
2018-09-19T07:58:45.010Z,21.70
2018-09-19T08:00:48.671Z,21.40
2018-09-19T08:02:52.055Z,21.50
2018-09-19T08:04:55.852Z,21.70
2018-09-19T08:06:59.560Z,22.00
2018-09-19T08:09:03.253Z,22.20
2018-09-19T08:11:06.835Z,22.40
2018-09-19T08:13:10.330Z,22.40
2018-09-19T08:15:13.866Z,22.60
2018-09-19T08:17:17.504Z,22.80
2018-09-19T08:19:21.050Z,22.80
2018-09-19T08:21:24.571Z,22.60
2018-09-19T08:23:28.269Z,22.30
2018-09-19T08:25:31.883Z,22.60
2018-09-19T08:27:35.488Z,22.70
2018-09-19T08:29:38.993Z,22.40
2018-09-19T08:31:42.623Z,22.40
2018-09-19T08:33:46.579Z,22.60
2018-09-19T08:35:50.207Z,22.80
2018-09-19T08:37:53.728Z,22.90
2018-09-19T08:39:57.251Z,23.10
2018-09-19T08:42:00.976Z,23.20
2018-09-19T08:44:04.493Z,23.20
2018-09-19T08:46:08.038Z,23.10
2018-09-19T08:48:11.734Z,23.10
2018-09-19T08:50:15.219Z,23.00
2018-09-19T08:52:18.767Z,23.10
2018-09-19T08:54:22.268Z,23.00
2018-09-19T08:56:25.963Z,23.20
2018-09-19T08:58:29.485Z,23.40
2018-09-19T09:00:33.175Z,23.50
2018-09-19T09:02:36.764Z,23.40
2018-09-19T09:04:40.412Z,23.40
2018-09-19T09:06:44.042Z,23.40
2018-09-19T09:08:47.622Z,23.50
2018-09-19T09:10:51.330Z,23.70
2018-09-19T09:12:54.938Z,23.70
2018-09-19T09:14:58.646Z,23.40
2018-09-19T09:17:02.175Z,23.70
2018-09-19T09:19:05.828Z,23.80
2018-09-19T09:21:09.340Z,23.70
2018-09-19T09:23:12.847Z,23.30
2018-09-19T09:25:16.345Z,23.80
2018-09-19T09:27:19.944Z,24.00
2018-09-19T09:29:23.608Z,24.10
2018-09-19T09:31:27.123Z,24.10
2018-09-19T09:33:30.671Z,23.80
2018-09-19T09:35:34.256Z,24.20
2018-09-19T09:37:38.279Z,24.30
2018-09-19T09:39:41.813Z,24.50
2018-09-19T09:41:45.401Z,24.40
2018-09-19T09:43:48.917Z,24.30
2018-09-19T09:45:52.438Z,24.40
2018-09-19T09:47:55.913Z,24.50
2018-09-19T09:49:59.426Z,24.10
2018-09-19T09:52:02.983Z,24.20
2018-09-19T09:54:06.455Z,24.20
2018-09-19T09:56:10.108Z,24.30
2018-09-19T09:58:13.636Z,24.50
2018-09-19T10:00:22.546Z,24.60
2018-09-19T10:02:26.064Z,24.60
2018-09-19T10:04:29.608Z,24.60
2018-09-19T10:06:33.196Z,24.80
2018-09-19T10:08:36.714Z,24.80
2018-09-19T10:10:40.224Z,24.90
2018-09-19T10:12:43.840Z,24.90
2018-09-19T10:14:47.330Z,24.70
2018-09-19T10:16:50.848Z,24.90
2018-09-19T10:18:54.427Z,25.00
2018-09-19T10:20:58.063Z,25.10
2018-09-19T10:23:01.615Z,25.00
2018-09-19T10:25:05.372Z,25.20
2018-09-19T10:27:08.832Z,25.20
2018-09-19T10:29:12.374Z,24.50
2018-09-19T10:31:15.903Z,24.80
2018-09-19T10:33:19.599Z,25.20
2018-09-19T10:35:23.271Z,25.40
2018-09-19T10:37:26.699Z,25.30
2018-09-19T10:39:30.181Z,25.60
2018-09-19T10:41:33.885Z,25.60
2018-09-19T10:43:37.594Z,25.60
2018-09-19T10:45:41.264Z,25.60
2018-09-19T10:47:44.772Z,25.80
2018-09-19T10:49:48.272Z,25.40
2018-09-19T10:51:51.923Z,25.50
2018-09-19T10:53:55.535Z,25.60
2018-09-19T10:55:59.049Z,25.90
2018-09-19T10:58:02.666Z,26.10
2018-09-19T11:00:07.348Z,26.00
2018-09-19T11:02:11.081Z,26.20
2018-09-19T11:04:14.742Z,26.10
2018-09-19T11:06:18.277Z,25.90
2018-09-19T11:08:21.799Z,25.90
2018-09-19T11:10:25.341Z,26.20
2018-09-19T11:12:28.850Z,26.30
2018-09-19T11:14:32.351Z,26.40
2018-09-19T11:16:35.964Z,26.40
2018-09-19T11:18:39.459Z,26.30
2018-09-19T11:20:42.984Z,26.30
2018-09-19T11:22:46.917Z,26.10
2018-09-19T11:24:50.497Z,26.10
2018-09-19T11:26:54.004Z,26.40
2018-09-19T11:28:57.494Z,26.50
2018-09-19T11:31:01.045Z,26.60
2018-09-19T11:33:04.571Z,26.70
2018-09-19T11:35:08.130Z,26.60
2018-09-19T11:37:11.735Z,26.20
2018-09-19T11:39:15.265Z,25.80
2018-09-19T11:41:18.779Z,26.20
2018-09-19T11:43:22.581Z,26.20
2018-09-19T11:45:26.072Z,26.30
2018-09-19T11:47:29.600Z,26.30
2018-09-19T11:49:33.155Z,26.20
2018-09-19T11:51:36.729Z,26.60
2018-09-19T11:53:40.291Z,26.40
2018-09-19T11:55:43.956Z,26.70
2018-09-19T11:57:47.575Z,27.00
2018-09-19T11:59:51.124Z,27.00
2018-09-19T12:01:54.654Z,26.80
2018-09-19T12:03:58.311Z,26.60
2018-09-19T12:06:01.945Z,26.70
2018-09-19T12:08:05.752Z,27.00
2018-09-19T12:10:09.250Z,27.00
2018-09-19T12:12:12.765Z,27.40
2018-09-19T12:14:16.269Z,27.60
2018-09-19T12:16:19.860Z,27.70
2018-09-19T12:18:23.387Z,27.20
2018-09-19T12:20:27.024Z,27.40
2018-09-19T12:22:30.624Z,27.10
2018-09-19T12:24:34.179Z,27.00
2018-09-19T12:26:37.775Z,27.20
2018-09-19T12:28:41.316Z,26.70
2018-09-19T12:30:44.899Z,26.80
2018-09-19T12:32:48.423Z,26.90
2018-09-19T12:34:51.985Z,26.80
2018-09-19T12:36:55.625Z,27.10
2018-09-19T12:38:59.127Z,27.40
2018-09-19T12:41:02.671Z,27.70
2018-09-19T12:43:06.373Z,27.60
2018-09-19T12:45:09.916Z,27.90
2018-09-19T12:47:16.548Z,28.10
2018-09-19T12:49:20.154Z,28.10
2018-09-19T12:51:23.703Z,27.80
2018-09-19T12:53:27.214Z,27.80
2018-09-19T12:55:30.900Z,27.70
2018-09-19T12:57:34.412Z,27.80
2018-09-19T12:59:37.916Z,28.20
2018-09-19T13:01:41.383Z,28.00
2018-09-19T13:03:44.932Z,28.20
2018-09-19T13:05:48.697Z,28.20
2018-09-19T13:07:52.371Z,28.10
2018-09-19T13:09:55.934Z,28.30
2018-09-19T13:11:59.439Z,27.90
2018-09-19T13:14:03.000Z,27.70
2018-09-19T13:16:06.567Z,27.70
2018-09-19T13:18:10.103Z,27.60
2018-09-19T13:20:13.703Z,27.70
2018-09-19T13:22:17.453Z,27.90
2018-09-19T13:24:21.006Z,28.00
2018-09-19T13:26:24.640Z,28.30
2018-09-19T13:28:28.192Z,28.20
2018-09-19T13:30:31.715Z,28.30
2018-09-19T13:32:35.255Z,28.50
2018-09-19T13:34:38.886Z,28.80
2018-09-19T13:36:42.383Z,28.60
2018-09-19T13:38:46.051Z,28.70
2018-09-19T13:40:49.567Z,28.40
2018-09-19T13:42:53.207Z,28.60
2018-09-19T13:44:56.704Z,28.80
2018-09-19T13:47:00.247Z,28.50
2018-09-19T13:49:28.786Z,28.60
2018-09-19T13:51:32.314Z,28.70
2018-09-19T13:53:36.084Z,28.40
2018-09-19T13:55:39.822Z,28.50
2018-09-19T13:57:43.351Z,28.50
2018-09-19T13:59:46.920Z,28.70
2018-09-19T14:01:50.508Z,28.70
2018-09-19T14:03:54.093Z,28.80
2018-09-19T14:05:57.621Z,28.70
2018-09-19T14:08:01.199Z,28.30
2018-09-19T14:10:05.361Z,28.60
2018-09-19T14:12:08.986Z,28.70
2018-09-19T14:14:12.829Z,28.80
2018-09-19T14:16:16.335Z,29.10
2018-09-19T14:18:20.023Z,29.10
2018-09-19T14:20:23.526Z,29.00
2018-09-19T14:22:27.157Z,28.80
2018-09-19T14:24:30.648Z,28.70
2018-09-19T14:26:34.240Z,28.70
2018-09-19T14:28:37.827Z,28.80
2018-09-19T14:30:41.374Z,28.70
2018-09-19T14:32:44.915Z,28.60
2018-09-19T14:34:48.475Z,28.90
2018-09-19T14:36:52.076Z,28.40
2018-09-19T14:38:55.656Z,28.10
2018-09-19T14:40:59.187Z,28.60
2018-09-19T14:43:02.905Z,28.80
2018-09-19T14:45:06.742Z,28.90
2018-09-19T14:47:10.380Z,29.00
2018-09-19T14:49:13.871Z,29.30
2018-09-19T14:51:17.388Z,29.20
2018-09-19T14:53:20.919Z,29.00
2018-09-19T14:55:24.589Z,28.70
2018-09-19T14:57:28.302Z,28.70
2018-09-19T14:59:34.845Z,28.80
2018-09-19T15:01:38.404Z,28.70
2018-09-19T15:03:41.962Z,28.60
2018-09-19T15:05:45.644Z,28.80
2018-09-19T15:07:49.187Z,28.90
2018-09-19T15:09:52.723Z,29.00
2018-09-19T15:11:56.432Z,29.10
2018-09-19T15:13:59.974Z,29.10
2018-09-19T15:16:03.522Z,29.30
2018-09-19T15:18:07.238Z,29.60
2018-09-19T15:20:10.707Z,30.20
2018-09-19T15:22:14.431Z,30.40
2018-09-19T15:24:18.021Z,30.60
2018-09-19T15:26:21.520Z,30.90
2018-09-19T15:28:25.030Z,30.90
2018-09-19T15:30:28.708Z,30.40
2018-09-19T15:32:32.316Z,30.50
2018-09-19T15:34:36.114Z,30.40
2018-09-19T15:36:39.782Z,30.30
2018-09-19T15:38:43.307Z,30.00
2018-09-19T15:40:46.810Z,29.90
2018-09-19T15:42:50.577Z,29.90
2018-09-19T15:44:54.321Z,29.70
2018-09-19T15:46:57.855Z,29.80
2018-09-19T15:49:01.484Z,29.60
2018-09-19T15:51:05.112Z,29.50
2018-09-19T15:53:08.778Z,29.30
2018-09-19T15:55:12.493Z,29.40
2018-09-19T15:57:16.176Z,29.50
2018-09-19T15:59:19.655Z,29.50
2018-09-19T16:01:23.237Z,29.40
2018-09-19T16:03:27.411Z,29.30
2018-09-19T16:05:30.961Z,29.40
2018-09-19T16:07:35.411Z,29.50
2018-09-19T16:09:38.996Z,29.40
2018-09-19T16:11:42.557Z,29.30
2018-09-19T16:13:46.220Z,29.30
2018-09-19T16:15:49.973Z,29.20
2018-09-19T16:17:53.489Z,29.30
2018-09-19T16:19:57.183Z,29.40
2018-09-19T16:22:00.773Z,29.40
2018-09-19T16:24:04.327Z,29.40
2018-09-19T16:26:08.166Z,29.30
2018-09-19T16:28:11.699Z,29.30
2018-09-19T16:30:15.269Z,29.30
2018-09-19T16:32:18.794Z,29.30
2018-09-19T16:34:22.486Z,29.20
2018-09-19T16:36:25.997Z,29.20
2018-09-19T16:38:29.512Z,29.10
2018-09-19T16:40:33.028Z,29.10
2018-09-19T16:42:36.572Z,29.00
2018-09-19T16:44:40.291Z,29.00
2018-09-19T16:46:43.899Z,29.00
2018-09-19T16:48:47.600Z,28.80
2018-09-19T16:50:51.220Z,28.60
2018-09-19T16:52:55.135Z,28.40
2018-09-19T16:54:58.615Z,28.20
2018-09-19T16:57:02.127Z,28.10
2018-09-19T16:59:05.995Z,28.00
2018-09-19T17:01:10.117Z,28.00
2018-09-19T17:03:14.060Z,27.90
2018-09-19T17:05:17.707Z,28.00
2018-09-19T17:07:21.837Z,27.90
2018-09-19T17:09:25.366Z,27.90
2018-09-19T17:11:28.952Z,27.90
2018-09-19T17:13:32.543Z,27.80
2018-09-19T17:15:36.150Z,27.60
2018-09-19T17:17:39.658Z,27.50
2018-09-19T17:19:43.188Z,27.50
2018-09-19T17:21:46.816Z,27.50
2018-09-19T17:23:50.325Z,27.50
2018-09-19T17:25:54.096Z,27.40
2018-09-19T17:27:57.539Z,27.40
2018-09-19T17:30:01.264Z,27.30
2018-09-19T17:32:04.885Z,27.30
2018-09-19T17:34:08.463Z,27.20
2018-09-19T17:36:12.047Z,27.10
2018-09-19T17:38:15.712Z,27.00
2018-09-19T17:40:19.235Z,26.90
2018-09-19T17:42:22.770Z,26.80
2018-09-19T17:44:26.396Z,26.80
2018-09-19T17:46:30.266Z,26.60
2018-09-19T17:48:33.827Z,26.30
2018-09-19T17:50:37.387Z,26.20
2018-09-19T17:52:41.185Z,26.20
2018-09-19T17:54:44.727Z,26.20
2018-09-19T17:56:48.365Z,26.20
2018-09-19T17:58:52.134Z,26.10
2018-09-19T18:00:55.755Z,26.00
2018-09-19T18:02:59.202Z,26.00
2018-09-19T18:05:02.849Z,26.00
2018-09-19T18:07:07.098Z,26.00
2018-09-19T18:09:10.664Z,26.00
2018-09-19T18:11:14.307Z,25.90
2018-09-19T18:13:18.095Z,25.90
2018-09-19T18:15:21.712Z,25.80
2018-09-19T18:17:25.304Z,25.10
2018-09-19T18:19:28.905Z,25.00
2018-09-19T18:21:33.389Z,24.70
2018-09-19T18:23:36.908Z,24.60
2018-09-19T18:25:40.597Z,24.70
2018-09-19T18:27:44.173Z,24.70
2018-09-19T18:29:47.698Z,24.60
2018-09-19T18:31:51.432Z,24.50
2018-09-19T18:33:55.060Z,24.50
2018-09-19T18:35:58.667Z,24.60
2018-09-19T18:38:02.234Z,24.60
2018-09-19T18:40:05.896Z,24.60
2018-09-19T18:42:09.447Z,24.60
2018-09-19T18:44:13.156Z,24.50
2018-09-19T18:46:16.787Z,24.50
2018-09-19T18:48:20.450Z,24.50
2018-09-19T18:50:24.303Z,24.50
2018-09-19T18:52:28.412Z,24.50
2018-09-19T18:54:32.164Z,24.50
2018-09-19T18:56:36.076Z,24.50
2018-09-19T18:58:39.713Z,24.40
2018-09-19T19:00:43.468Z,24.10
2018-09-19T19:02:47.076Z,23.90
2018-09-19T19:04:50.863Z,23.80
2018-09-19T19:06:54.464Z,23.80
2018-09-19T19:08:58.070Z,23.40
2018-09-19T19:11:01.856Z,23.70
2018-09-19T19:13:05.562Z,23.80
2018-09-19T19:15:09.351Z,23.90
2018-09-19T19:17:13.159Z,24.00
2018-09-19T19:19:16.921Z,24.00
2018-09-19T19:21:20.787Z,24.10
2018-09-19T19:23:24.404Z,24.00
2018-09-19T19:25:27.991Z,24.00
2018-09-19T19:27:31.599Z,24.00
2018-09-19T19:29:35.292Z,24.00
2018-09-19T19:31:38.860Z,24.00
2018-09-19T19:33:42.588Z,24.00
2018-09-19T19:35:46.316Z,23.90
2018-09-19T19:37:50.020Z,23.80
2018-09-19T19:39:53.413Z,23.80
2018-09-19T19:41:57.185Z,23.80
2018-09-19T19:44:00.780Z,23.60
2018-09-19T19:46:04.324Z,23.40
2018-09-19T19:48:07.952Z,23.50
2018-09-19T19:50:11.537Z,23.60
2018-09-19T19:52:15.341Z,23.60
2018-09-19T19:54:18.899Z,23.70
2018-09-19T19:56:22.535Z,23.70
2018-09-19T19:58:26.346Z,23.70
2018-09-19T20:00:29.986Z,23.70
2018-09-19T20:02:34.116Z,23.60
2018-09-19T20:04:37.692Z,23.50
2018-09-19T20:06:41.280Z,23.50
2018-09-19T20:08:44.995Z,23.50
2018-09-19T20:10:48.780Z,23.50
2018-09-19T20:12:52.278Z,23.50
2018-09-19T20:14:55.835Z,23.60
2018-09-19T20:16:59.497Z,23.60
2018-09-19T20:19:03.354Z,23.50
2018-09-19T20:21:06.847Z,23.40
2018-09-19T20:23:10.466Z,23.20
2018-09-19T20:25:14.096Z,23.00
2018-09-19T20:27:17.681Z,22.50
2018-09-19T20:29:21.394Z,22.30
2018-09-19T20:31:24.929Z,22.20
2018-09-19T20:33:28.564Z,22.20
2018-09-19T20:35:32.228Z,22.00
2018-09-19T20:37:35.777Z,22.20
2018-09-19T20:39:39.479Z,22.20
2018-09-19T20:41:43.174Z,22.50
2018-09-19T20:43:46.770Z,22.70
2018-09-19T20:45:50.519Z,22.80
2018-09-19T20:47:54.267Z,22.70
2018-09-19T20:49:58.164Z,22.70
2018-09-19T20:52:01.728Z,22.70
2018-09-19T20:54:05.353Z,22.80
2018-09-19T20:56:08.889Z,22.70
2018-09-19T20:58:12.458Z,22.60
2018-09-19T21:00:16.048Z,22.30
2018-09-19T21:02:19.581Z,22.10
2018-09-19T21:04:23.266Z,22.20
2018-09-19T21:06:26.897Z,22.30
2018-09-19T21:08:30.564Z,22.40
2018-09-19T21:10:34.172Z,22.30
2018-09-19T21:12:37.706Z,22.40
2018-09-19T21:14:41.277Z,22.40
2018-09-19T21:16:44.889Z,22.50
2018-09-19T21:18:48.546Z,22.50
2018-09-19T21:20:52.253Z,22.50
2018-09-19T21:22:55.869Z,22.40
2018-09-19T21:24:59.520Z,22.50
2018-09-19T21:27:03.065Z,22.40
2018-09-19T21:29:06.728Z,22.00
2018-09-19T21:31:10.407Z,21.60
2018-09-19T21:33:14.055Z,21.40
2018-09-19T21:35:17.621Z,21.40
2018-09-19T21:37:21.115Z,21.30
2018-09-19T21:39:25.640Z,21.40
2018-09-19T21:41:29.187Z,21.60
2018-09-19T21:43:32.817Z,21.80
2018-09-19T21:45:36.325Z,21.80
2018-09-19T21:47:40.504Z,22.00
2018-09-19T21:49:44.034Z,22.20
2018-09-19T21:51:47.672Z,22.20
2018-09-19T21:53:51.301Z,22.20
2018-09-19T21:55:54.808Z,22.20
2018-09-19T21:57:58.368Z,22.10
2018-09-19T22:00:01.896Z,22.10
2018-09-19T22:02:05.708Z,22.10
2018-09-19T22:04:09.426Z,22.10
2018-09-19T22:06:13.135Z,21.60
2018-09-19T22:08:16.660Z,21.60
2018-09-19T22:10:20.205Z,21.70
2018-09-19T22:12:23.738Z,21.60
2018-09-19T22:14:27.300Z,21.40
2018-09-19T22:16:30.866Z,21.20
2018-09-19T22:18:34.448Z,21.30
2018-09-19T22:20:37.992Z,21.50
2018-09-19T22:22:41.560Z,21.70
2018-09-19T22:24:45.073Z,21.70
2018-09-19T22:26:48.620Z,21.70
2018-09-19T22:28:52.211Z,21.70
2018-09-19T22:30:55.922Z,21.60
2018-09-19T22:32:59.444Z,21.60
2018-09-19T22:35:03.422Z,21.60
2018-09-19T22:37:06.928Z,21.60
2018-09-19T22:39:10.547Z,21.50
2018-09-19T22:41:14.188Z,21.60
2018-09-19T22:43:17.744Z,21.60
2018-09-19T22:45:21.247Z,21.60
2018-09-19T22:47:24.792Z,21.70
2018-09-19T22:49:28.506Z,21.60
2018-09-19T22:51:32.127Z,21.60
2018-09-19T22:53:35.940Z,21.40
2018-09-19T22:55:39.591Z,21.30
2018-09-19T22:57:43.170Z,21.30
2018-09-19T22:59:46.936Z,21.40
2018-09-19T23:01:50.474Z,21.50
2018-09-19T23:03:54.088Z,21.60
2018-09-19T23:05:57.647Z,21.60
2018-09-19T23:08:01.395Z,21.60
2018-09-19T23:10:05.110Z,21.40
2018-09-19T23:12:08.640Z,20.90
2018-09-19T23:14:12.246Z,21.00
2018-09-19T23:16:16.000Z,21.20
2018-09-19T23:18:19.678Z,21.90
2018-09-19T23:20:23.238Z,21.30
2018-09-19T23:22:26.816Z,21.30
2018-09-19T23:24:30.522Z,21.20
2018-09-19T23:26:34.058Z,21.30
2018-09-19T23:28:37.637Z,21.10
2018-09-19T23:30:41.356Z,21.10
2018-09-19T23:32:44.864Z,20.90
2018-09-19T23:34:48.486Z,20.90
2018-09-19T23:36:52.057Z,21.10
2018-09-19T23:38:55.551Z,21.30
2018-09-19T23:40:59.296Z,21.30
2018-09-19T23:43:02.768Z,21.20
2018-09-19T23:45:06.442Z,21.30
2018-09-19T23:47:10.022Z,21.10
2018-09-19T23:49:13.580Z,21.10
2018-09-19T23:51:17.138Z,21.20
2018-09-19T23:53:20.826Z,21.20
2018-09-19T23:55:24.380Z,21.20
2018-09-19T23:57:27.920Z,21.30
2018-09-19T23:59:31.578Z,21.20
